sensor_id;sensor_type;location;lat;lon;timestamp;P1;durP1;ratioP1;P2;durP2;ratioP2
20497;SDS011;10407;53.238;10.448;2023-02-14T00:00:50;125.97;;;28.93;;
20497;SDS011;10407;53.238;10.448;2023-02-14T00:03:18;124.40;;;28.27;;
20497;SDS011;10407;53.238;10.448;2023-02-14T00:05:45;124.10;;;24.60;;
20497;SDS011;10407;53.238;10.448;2023-02-14T00:08:14;118.90;;;25.37;;
20497;SDS011;10407;53.238;10.448;2023-02-14T00:10:42;119.47;;;23.90;;
20497;SDS011;10407;53.238;10.448;2023-02-14T00:13:09;120.90;;;25.53;;
20497;SDS011;10407;53.238;10.448;2023-02-14T00:15:37;116.93;;;24.53;;
20497;SDS011;10407;53.238;10.448;2023-02-14T00:18:04;120.97;;;26.07;;
20497;SDS011;10407;53.238;10.448;2023-02-14T00:20:32;120.77;;;24.67;;
20497;SDS011;10407;53.238;10.448;2023-02-14T00:23:01;123.80;;;26.50;;
20497;SDS011;10407;53.238;10.448;2023-02-14T00:25:28;121.73;;;26.43;;
20497;SDS011;10407;53.238;10.448;2023-02-14T00:27:56;120.90;;;26.97;;
20497;SDS011;10407;53.238;10.448;2023-02-14T00:30:23;122.10;;;26.80;;
20497;SDS011;10407;53.238;10.448;2023-02-14T00:32:51;120.47;;;25.57;;
20497;SDS011;10407;53.238;10.448;2023-02-14T00:35:18;125.90;;;28.73;;
20497;SDS011;10407;53.238;10.448;2023-02-14T00:37:46;120.77;;;25.20;;
20497;SDS011;10407;53.238;10.448;2023-02-14T00:40:13;127.30;;;27.63;;
20497;SDS011;10407;53.238;10.448;2023-02-14T00:42:41;130.03;;;27.73;;
20497;SDS011;10407;53.238;10.448;2023-02-14T00:45:09;125.83;;;26.67;;
20497;SDS011;10407;53.238;10.448;2023-02-14T00:47:36;127.97;;;27.10;;
20497;SDS011;10407;53.238;10.448;2023-02-14T00:50:04;122.50;;;24.97;;
20497;SDS011;10407;53.238;10.448;2023-02-14T00:52:31;128.10;;;29.20;;
20497;SDS011;10407;53.238;10.448;2023-02-14T00:54:59;127.90;;;27.57;;
20497;SDS011;10407;53.238;10.448;2023-02-14T00:57:27;129.03;;;29.27;;
20497;SDS011;10407;53.238;10.448;2023-02-14T00:59:54;126.57;;;27.17;;
20497;SDS011;10407;53.238;10.448;2023-02-14T01:02:22;130.70;;;28.00;;
20497;SDS011;10407;53.238;10.448;2023-02-14T01:04:49;128.17;;;28.77;;
20497;SDS011;10407;53.238;10.448;2023-02-14T01:07:17;126.20;;;27.83;;
20497;SDS011;10407;53.238;10.448;2023-02-14T01:09:46;134.53;;;30.37;;
20497;SDS011;10407;53.238;10.448;2023-02-14T01:12:14;125.90;;;28.87;;
20497;SDS011;10407;53.238;10.448;2023-02-14T01:14:41;127.97;;;27.30;;
20497;SDS011;10407;53.238;10.448;2023-02-14T01:17:09;130.90;;;29.00;;
20497;SDS011;10407;53.238;10.448;2023-02-14T01:19:36;129.93;;;27.57;;
20497;SDS011;10407;53.238;10.448;2023-02-14T01:22:05;123.73;;;26.53;;
20497;SDS011;10407;53.238;10.448;2023-02-14T01:24:34;125.90;;;26.80;;
20497;SDS011;10407;53.238;10.448;2023-02-14T01:27:01;133.90;;;27.80;;
20497;SDS011;10407;53.238;10.448;2023-02-14T01:29:29;132.40;;;27.07;;
20497;SDS011;10407;53.238;10.448;2023-02-14T01:31:56;124.80;;;29.20;;
20497;SDS011;10407;53.238;10.448;2023-02-14T01:34:24;132.73;;;28.20;;
20497;SDS011;10407;53.238;10.448;2023-02-14T01:36:51;131.97;;;29.60;;
20497;SDS011;10407;53.238;10.448;2023-02-14T01:39:19;129.50;;;29.50;;
20497;SDS011;10407;53.238;10.448;2023-02-14T01:41:47;123.13;;;27.13;;
20497;SDS011;10407;53.238;10.448;2023-02-14T01:46:45;127.87;;;27.50;;
20497;SDS011;10407;53.238;10.448;2023-02-14T01:49:19;131.87;;;28.60;;
20497;SDS011;10407;53.238;10.448;2023-02-14T01:51:55;136.43;;;29.80;;
20497;SDS011;10407;53.238;10.448;2023-02-14T01:54:27;131.77;;;29.33;;
20497;SDS011;10407;53.238;10.448;2023-02-14T01:56:57;124.10;;;27.20;;
20497;SDS011;10407;53.238;10.448;2023-02-14T01:59:29;129.73;;;27.07;;
20497;SDS011;10407;53.238;10.448;2023-02-14T02:01:57;131.07;;;29.67;;
20497;SDS011;10407;53.238;10.448;2023-02-14T02:04:27;131.10;;;29.90;;
20497;SDS011;10407;53.238;10.448;2023-02-14T02:06:57;131.10;;;30.93;;
20497;SDS011;10407;53.238;10.448;2023-02-14T02:09:34;131.70;;;32.07;;
20497;SDS011;10407;53.238;10.448;2023-02-14T02:12:06;135.37;;;30.33;;
20497;SDS011;10407;53.238;10.448;2023-02-14T02:14:34;129.27;;;27.57;;
20497;SDS011;10407;53.238;10.448;2023-02-14T02:17:06;126.67;;;27.70;;
20497;SDS011;10407;53.238;10.448;2023-02-14T02:20:03;123.40;;;28.10;;
20497;SDS011;10407;53.238;10.448;2023-02-14T02:48:08;128.53;;;28.07;;
20497;SDS011;10407;53.238;10.448;2023-02-14T02:50:38;126.30;;;27.90;;
20497;SDS011;10407;53.238;10.448;2023-02-14T02:58:58;138.17;;;28.43;;
20497;SDS011;10407;53.238;10.448;2023-02-14T03:01:35;133.77;;;29.70;;
20497;SDS011;10407;53.238;10.448;2023-02-14T03:04:06;129.87;;;27.27;;
20497;SDS011;10407;53.238;10.448;2023-02-14T03:06:53;127.47;;;28.00;;
20497;SDS011;10407;53.238;10.448;2023-02-14T03:14:44;125.13;;;26.13;;
20497;SDS011;10407;53.238;10.448;2023-02-14T03:17:20;131.67;;;27.03;;
20497;SDS011;10407;53.238;10.448;2023-02-14T03:22:45;121.97;;;26.80;;
20497;SDS011;10407;53.238;10.448;2023-02-14T03:25:36;123.90;;;25.67;;
20497;SDS011;10407;53.238;10.448;2023-02-14T03:28:22;130.73;;;27.47;;
20497;SDS011;10407;53.238;10.448;2023-02-14T03:30:53;128.37;;;26.97;;
20497;SDS011;10407;53.238;10.448;2023-02-14T03:33:22;129.23;;;27.87;;
20497;SDS011;10407;53.238;10.448;2023-02-14T03:38:51;125.27;;;26.37;;
20497;SDS011;10407;53.238;10.448;2023-02-14T03:41:38;126.50;;;26.00;;
20497;SDS011;10407;53.238;10.448;2023-02-14T03:44:08;131.67;;;24.90;;
20497;SDS011;10407;53.238;10.448;2023-02-14T03:46:39;121.73;;;26.47;;
20497;SDS011;10407;53.238;10.448;2023-02-14T03:49:16;131.73;;;26.83;;
20497;SDS011;10407;53.238;10.448;2023-02-14T03:51:46;128.97;;;25.97;;
20497;SDS011;10407;53.238;10.448;2023-02-14T03:54:16;127.37;;;26.97;;
20497;SDS011;10407;53.238;10.448;2023-02-14T03:56:49;119.10;;;23.63;;
20497;SDS011;10407;53.238;10.448;2023-02-14T03:59:19;124.00;;;27.00;;
20497;SDS011;10407;53.238;10.448;2023-02-14T04:01:54;122.17;;;24.17;;
20497;SDS011;10407;53.238;10.448;2023-02-14T04:04:21;118.20;;;23.30;;
20497;SDS011;10407;53.238;10.448;2023-02-14T04:06:50;128.80;;;26.90;;
20497;SDS011;10407;53.238;10.448;2023-02-14T04:09:18;128.07;;;24.93;;
20497;SDS011;10407;53.238;10.448;2023-02-14T04:11:45;126.57;;;27.17;;
20497;SDS011;10407;53.238;10.448;2023-02-14T04:14:15;118.83;;;23.40;;
20497;SDS011;10407;53.238;10.448;2023-02-14T04:16:43;122.47;;;23.70;;
20497;SDS011;10407;53.238;10.448;2023-02-14T04:19:28;121.93;;;26.47;;
20497;SDS011;10407;53.238;10.448;2023-02-14T04:21:55;124.70;;;24.63;;
20497;SDS011;10407;53.238;10.448;2023-02-14T04:24:23;121.03;;;25.40;;
20497;SDS011;10407;53.238;10.448;2023-02-14T04:26:50;126.33;;;26.83;;
20497;SDS011;10407;53.238;10.448;2023-02-14T04:29:22;122.33;;;25.00;;
20497;SDS011;10407;53.238;10.448;2023-02-14T04:31:50;118.80;;;24.00;;
20497;SDS011;10407;53.238;10.448;2023-02-14T04:34:17;123.63;;;26.00;;
20497;SDS011;10407;53.238;10.448;2023-02-14T04:36:44;121.97;;;25.40;;
20497;SDS011;10407;53.238;10.448;2023-02-14T04:39:12;124.67;;;26.27;;
20497;SDS011;10407;53.238;10.448;2023-02-14T04:41:39;118.97;;;25.60;;
20497;SDS011;10407;53.238;10.448;2023-02-14T04:44:07;129.50;;;25.97;;
20497;SDS011;10407;53.238;10.448;2023-02-14T04:46:34;119.73;;;24.87;;
20497;SDS011;10407;53.238;10.448;2023-02-14T04:49:02;120.33;;;25.20;;
20497;SDS011;10407;53.238;10.448;2023-02-14T04:51:29;118.30;;;23.40;;
20497;SDS011;10407;53.238;10.448;2023-02-14T04:53:57;118.40;;;26.53;;
20497;SDS011;10407;53.238;10.448;2023-02-14T04:56:24;115.13;;;22.13;;
20497;SDS011;10407;53.238;10.448;2023-02-14T04:58:52;116.70;;;25.53;;
20497;SDS011;10407;53.238;10.448;2023-02-14T05:01:20;127.03;;;28.40;;
20497;SDS011;10407;53.238;10.448;2023-02-14T05:03:48;118.57;;;23.60;;
20497;SDS011;10407;53.238;10.448;2023-02-14T05:06:15;120.80;;;23.33;;
20497;SDS011;10407;53.238;10.448;2023-02-14T05:08:43;121.93;;;24.00;;
20497;SDS011;10407;53.238;10.448;2023-02-14T05:11:10;127.27;;;25.70;;
20497;SDS011;10407;53.238;10.448;2023-02-14T05:13:38;119.80;;;23.57;;
20497;SDS011;10407;53.238;10.448;2023-02-14T05:16:06;129.40;;;25.70;;
20497;SDS011;10407;53.238;10.448;2023-02-14T05:18:33;121.73;;;25.90;;
20497;SDS011;10407;53.238;10.448;2023-02-14T05:21:01;122.83;;;25.33;;
20497;SDS011;10407;53.238;10.448;2023-02-14T05:23:28;124.67;;;26.30;;
20497;SDS011;10407;53.238;10.448;2023-02-14T05:25:56;129.47;;;26.07;;
20497;SDS011;10407;53.238;10.448;2023-02-14T05:28:23;123.30;;;25.27;;
20497;SDS011;10407;53.238;10.448;2023-02-14T05:30:51;121.83;;;24.83;;
20497;SDS011;10407;53.238;10.448;2023-02-14T05:33:19;127.27;;;25.00;;
20497;SDS011;10407;53.238;10.448;2023-02-14T05:35:46;119.60;;;23.60;;
20497;SDS011;10407;53.238;10.448;2023-02-14T05:38:14;119.37;;;23.10;;
20497;SDS011;10407;53.238;10.448;2023-02-14T05:40:41;122.50;;;25.70;;
20497;SDS011;10407;53.238;10.448;2023-02-14T05:43:09;121.77;;;24.40;;
20497;SDS011;10407;53.238;10.448;2023-02-14T05:45:37;125.13;;;25.30;;
20497;SDS011;10407;53.238;10.448;2023-02-14T05:48:04;116.93;;;25.00;;
20497;SDS011;10407;53.238;10.448;2023-02-14T05:50:32;121.87;;;25.27;;
20497;SDS011;10407;53.238;10.448;2023-02-14T05:52:59;119.70;;;24.67;;
20497;SDS011;10407;53.238;10.448;2023-02-14T05:55:27;122.97;;;26.30;;
20497;SDS011;10407;53.238;10.448;2023-02-14T05:57:55;120.97;;;25.47;;
20497;SDS011;10407;53.238;10.448;2023-02-14T06:00:22;118.40;;;23.10;;
20497;SDS011;10407;53.238;10.448;2023-02-14T06:02:50;118.77;;;24.43;;
20497;SDS011;10407;53.238;10.448;2023-02-14T06:05:17;115.70;;;23.00;;
20497;SDS011;10407;53.238;10.448;2023-02-14T06:07:50;124.57;;;25.77;;
20497;SDS011;10407;53.238;10.448;2023-02-14T06:10:18;120.73;;;24.33;;
20497;SDS011;10407;53.238;10.448;2023-02-14T06:12:47;119.40;;;23.87;;
20497;SDS011;10407;53.238;10.448;2023-02-14T06:15:16;119.27;;;24.30;;
20497;SDS011;10407;53.238;10.448;2023-02-14T06:17:44;118.83;;;23.40;;
20497;SDS011;10407;53.238;10.448;2023-02-14T06:20:13;118.57;;;24.70;;
20497;SDS011;10407;53.238;10.448;2023-02-14T06:22:40;117.27;;;22.63;;
20497;SDS011;10407;53.238;10.448;2023-02-14T06:25:08;120.23;;;23.23;;
20497;SDS011;10407;53.238;10.448;2023-02-14T06:27:35;119.87;;;24.53;;
20497;SDS011;10407;53.238;10.448;2023-02-14T06:30:03;121.13;;;23.37;;
20497;SDS011;10407;53.238;10.448;2023-02-14T06:32:32;122.73;;;24.13;;
20497;SDS011;10407;53.238;10.448;2023-02-14T06:34:59;118.27;;;23.90;;
20497;SDS011;10407;53.238;10.448;2023-02-14T06:37:28;114.77;;;22.60;;
20497;SDS011;10407;53.238;10.448;2023-02-14T06:39:56;123.07;;;23.67;;
20497;SDS011;10407;53.238;10.448;2023-02-14T06:42:23;119.73;;;23.77;;
20497;SDS011;10407;53.238;10.448;2023-02-14T06:44:51;114.27;;;23.40;;
20497;SDS011;10407;53.238;10.448;2023-02-14T06:47:19;116.40;;;23.57;;
20497;SDS011;10407;53.238;10.448;2023-02-14T06:49:46;112.47;;;22.43;;
20497;SDS011;10407;53.238;10.448;2023-02-14T06:52:14;111.87;;;21.67;;
20497;SDS011;10407;53.238;10.448;2023-02-14T06:54:42;114.77;;;21.70;;
20497;SDS011;10407;53.238;10.448;2023-02-14T06:57:09;112.33;;;22.47;;
20497;SDS011;10407;53.238;10.448;2023-02-14T06:59:37;111.17;;;21.43;;
20497;SDS011;10407;53.238;10.448;2023-02-14T07:02:04;108.70;;;20.90;;
20497;SDS011;10407;53.238;10.448;2023-02-14T07:04:32;113.60;;;22.80;;
20497;SDS011;10407;53.238;10.448;2023-02-14T07:07:00;119.90;;;22.10;;
20497;SDS011;10407;53.238;10.448;2023-02-14T07:09:27;115.00;;;22.30;;
20497;SDS011;10407;53.238;10.448;2023-02-14T07:11:55;122.13;;;25.60;;
20497;SDS011;10407;53.238;10.448;2023-02-14T07:14:22;114.43;;;21.70;;
20497;SDS011;10407;53.238;10.448;2023-02-14T07:16:50;109.00;;;19.90;;
20497;SDS011;10407;53.238;10.448;2023-02-14T07:19:17;120.50;;;23.07;;
20497;SDS011;10407;53.238;10.448;2023-02-14T07:21:45;107.90;;;20.37;;
20497;SDS011;10407;53.238;10.448;2023-02-14T07:24:12;113.87;;;22.03;;
20497;SDS011;10407;53.238;10.448;2023-02-14T07:26:40;112.60;;;23.10;;
20497;SDS011;10407;53.238;10.448;2023-02-14T07:29:07;112.20;;;22.57;;
20497;SDS011;10407;53.238;10.448;2023-02-14T07:31:35;108.07;;;19.37;;
20497;SDS011;10407;53.238;10.448;2023-02-14T07:34:02;117.73;;;24.23;;
20497;SDS011;10407;53.238;10.448;2023-02-14T07:36:30;114.67;;;20.80;;
20497;SDS011;10407;53.238;10.448;2023-02-14T07:38:57;106.47;;;20.70;;
20497;SDS011;10407;53.238;10.448;2023-02-14T07:41:25;104.27;;;20.97;;
20497;SDS011;10407;53.238;10.448;2023-02-14T07:43:52;109.10;;;21.03;;
20497;SDS011;10407;53.238;10.448;2023-02-14T07:46:20;112.30;;;23.00;;
20497;SDS011;10407;53.238;10.448;2023-02-14T07:48:47;113.63;;;22.90;;
20497;SDS011;10407;53.238;10.448;2023-02-14T07:51:16;105.47;;;21.10;;
20497;SDS011;10407;53.238;10.448;2023-02-14T07:53:44;111.30;;;20.50;;
20497;SDS011;10407;53.238;10.448;2023-02-14T07:56:11;108.60;;;22.13;;
20497;SDS011;10407;53.238;10.448;2023-02-14T07:58:39;102.57;;;20.30;;
20497;SDS011;10407;53.238;10.448;2023-02-14T08:01:07;102.93;;;18.87;;
20497;SDS011;10407;53.238;10.448;2023-02-14T08:03:35;106.70;;;18.90;;
20497;SDS011;10407;53.238;10.448;2023-02-14T08:06:02;112.47;;;22.30;;
20497;SDS011;10407;53.238;10.448;2023-02-14T08:08:30;103.87;;;20.37;;
20497;SDS011;10407;53.238;10.448;2023-02-14T08:10:58;103.47;;;18.47;;
20497;SDS011;10407;53.238;10.448;2023-02-14T08:13:25;102.67;;;18.33;;
20497;SDS011;10407;53.238;10.448;2023-02-14T08:15:53;103.33;;;19.27;;
20497;SDS011;10407;53.238;10.448;2023-02-14T08:18:35;99.73;;;18.53;;
20497;SDS011;10407;53.238;10.448;2023-02-14T08:21:00;101.33;;;18.47;;
20497;SDS011;10407;53.238;10.448;2023-02-14T08:23:28;101.73;;;19.20;;
20497;SDS011;10407;53.238;10.448;2023-02-14T08:25:56;104.53;;;20.43;;
20497;SDS011;10407;53.238;10.448;2023-02-14T08:28:23;104.00;;;20.17;;
20497;SDS011;10407;53.238;10.448;2023-02-14T08:30:51;102.43;;;20.13;;
20497;SDS011;10407;53.238;10.448;2023-02-14T08:33:20;101.77;;;20.03;;
20497;SDS011;10407;53.238;10.448;2023-02-14T08:35:48;98.90;;;18.57;;
20497;SDS011;10407;53.238;10.448;2023-02-14T08:38:17;101.90;;;18.07;;
20497;SDS011;10407;53.238;10.448;2023-02-14T08:40:45;98.27;;;17.80;;
20497;SDS011;10407;53.238;10.448;2023-02-14T08:43:13;100.40;;;18.43;;
20497;SDS011;10407;53.238;10.448;2023-02-14T08:45:41;97.47;;;18.77;;
20497;SDS011;10407;53.238;10.448;2023-02-14T08:48:10;95.53;;;18.20;;
20497;SDS011;10407;53.238;10.448;2023-02-14T08:50:38;96.77;;;17.10;;
20497;SDS011;10407;53.238;10.448;2023-02-14T08:53:07;103.67;;;19.90;;
20497;SDS011;10407;53.238;10.448;2023-02-14T08:55:36;98.60;;;18.77;;
20497;SDS011;10407;53.238;10.448;2023-02-14T08:58:03;97.87;;;19.03;;
20497;SDS011;10407;53.238;10.448;2023-02-14T09:00:32;97.47;;;17.60;;
20497;SDS011;10407;53.238;10.448;2023-02-14T09:02:59;97.20;;;18.03;;
20497;SDS011;10407;53.238;10.448;2023-02-14T09:05:27;101.83;;;17.80;;
20497;SDS011;10407;53.238;10.448;2023-02-14T09:07:55;98.30;;;17.90;;
20497;SDS011;10407;53.238;10.448;2023-02-14T09:10:23;97.10;;;17.53;;
20497;SDS011;10407;53.238;10.448;2023-02-14T09:12:51;99.43;;;19.20;;
20497;SDS011;10407;53.238;10.448;2023-02-14T09:15:18;98.10;;;18.43;;
20497;SDS011;10407;53.238;10.448;2023-02-14T09:17:46;94.87;;;17.23;;
20497;SDS011;10407;53.238;10.448;2023-02-14T09:20:15;94.23;;;17.33;;
20497;SDS011;10407;53.238;10.448;2023-02-14T09:22:43;95.10;;;17.67;;
20497;SDS011;10407;53.238;10.448;2023-02-14T09:25:11;98.17;;;19.07;;
20497;SDS011;10407;53.238;10.448;2023-02-14T09:27:38;95.30;;;16.87;;
20497;SDS011;10407;53.238;10.448;2023-02-14T09:30:07;96.17;;;17.23;;
20497;SDS011;10407;53.238;10.448;2023-02-14T09:32:35;97.10;;;18.17;;
20497;SDS011;10407;53.238;10.448;2023-02-14T09:35:03;101.20;;;18.50;;
20497;SDS011;10407;53.238;10.448;2023-02-14T09:37:31;98.80;;;17.83;;
20497;SDS011;10407;53.238;10.448;2023-02-14T09:39:59;94.97;;;17.23;;
20497;SDS011;10407;53.238;10.448;2023-02-14T09:45:13;96.90;;;18.00;;
20497;SDS011;10407;53.238;10.448;2023-02-14T09:47:44;94.53;;;16.13;;
20497;SDS011;10407;53.238;10.448;2023-02-14T09:50:39;93.83;;;17.53;;
20497;SDS011;10407;53.238;10.448;2023-02-14T09:58:50;95.97;;;16.90;;
20497;SDS011;10407;53.238;10.448;2023-02-14T10:01:29;98.33;;;18.60;;
20497;SDS011;10407;53.238;10.448;2023-02-14T10:10:13;98.20;;;19.10;;
20497;SDS011;10407;53.238;10.448;2023-02-14T10:13:05;96.20;;;18.50;;
20497;SDS011;10407;53.238;10.448;2023-02-14T10:15:44;96.90;;;17.80;;
20497;SDS011;10407;53.238;10.448;2023-02-14T10:18:18;94.80;;;18.53;;
20497;SDS011;10407;53.238;10.448;2023-02-14T10:20:50;97.20;;;17.93;;
20497;SDS011;10407;53.238;10.448;2023-02-14T10:26:01;97.70;;;18.13;;
20497;SDS011;10407;53.238;10.448;2023-02-14T10:28:49;100.50;;;18.77;;
20497;SDS011;10407;53.238;10.448;2023-02-14T10:33:46;94.47;;;16.53;;
20497;SDS011;10407;53.238;10.448;2023-02-14T10:41:57;92.93;;;15.27;;
20497;SDS011;10407;53.238;10.448;2023-02-14T10:55:27;92.60;;;15.33;;
20497;SDS011;10407;53.238;10.448;2023-02-14T10:57:56;93.70;;;15.40;;
20497;SDS011;10407;53.238;10.448;2023-02-14T11:00:25;90.77;;;14.50;;
20497;SDS011;10407;53.238;10.448;2023-02-14T11:03:01;95.53;;;16.80;;
20497;SDS011;10407;53.238;10.448;2023-02-14T11:05:41;93.73;;;15.60;;
20497;SDS011;10407;53.238;10.448;2023-02-14T11:08:18;92.80;;;14.80;;
20497;SDS011;10407;53.238;10.448;2023-02-14T11:10:48;89.17;;;13.97;;
20497;SDS011;10407;53.238;10.448;2023-02-14T11:13:25;87.83;;;13.80;;
20497;SDS011;10407;53.238;10.448;2023-02-14T11:16:00;95.03;;;16.30;;
20497;SDS011;10407;53.238;10.448;2023-02-14T11:18:26;95.37;;;16.23;;
20497;SDS011;10407;53.238;10.448;2023-02-14T11:23:34;93.30;;;15.50;;
20497;SDS011;10407;53.238;10.448;2023-02-14T11:28:53;93.43;;;16.47;;
20497;SDS011;10407;53.238;10.448;2023-02-14T11:31:29;93.20;;;16.70;;
20497;SDS011;10407;53.238;10.448;2023-02-14T11:33:55;92.70;;;15.27;;
20497;SDS011;10407;53.238;10.448;2023-02-14T11:36:24;93.00;;;16.07;;
20497;SDS011;10407;53.238;10.448;2023-02-14T11:39:00;92.07;;;15.07;;
20497;SDS011;10407;53.238;10.448;2023-02-14T11:41:25;93.90;;;14.40;;
20497;SDS011;10407;53.238;10.448;2023-02-14T11:43:53;89.60;;;13.90;;
20497;SDS011;10407;53.238;10.448;2023-02-14T11:46:24;100.97;;;16.40;;
20497;SDS011;10407;53.238;10.448;2023-02-14T11:48:54;93.37;;;16.47;;
20497;SDS011;10407;53.238;10.448;2023-02-14T11:51:29;92.53;;;15.57;;
20497;SDS011;10407;53.238;10.448;2023-02-14T11:53:55;91.20;;;14.87;;
20497;SDS011;10407;53.238;10.448;2023-02-14T11:59:25;94.53;;;15.20;;
20497;SDS011;10407;53.238;10.448;2023-02-14T12:01:53;92.63;;;15.47;;
20497;SDS011;10407;53.238;10.448;2023-02-14T12:04:34;94.40;;;16.57;;
20497;SDS011;10407;53.238;10.448;2023-02-14T12:07:15;93.77;;;15.07;;
20497;SDS011;10407;53.238;10.448;2023-02-14T12:09:40;91.13;;;15.63;;
20497;SDS011;10407;53.238;10.448;2023-02-14T12:12:16;99.57;;;16.00;;
20497;SDS011;10407;53.238;10.448;2023-02-14T12:14:46;90.60;;;13.70;;
20497;SDS011;10407;53.238;10.448;2023-02-14T12:17:22;94.63;;;16.23;;
20497;SDS011;10407;53.238;10.448;2023-02-14T12:20:09;93.60;;;17.03;;
20497;SDS011;10407;53.238;10.448;2023-02-14T12:25:24;97.23;;;15.33;;
20497;SDS011;10407;53.238;10.448;2023-02-14T12:27:59;93.00;;;14.37;;
20497;SDS011;10407;53.238;10.448;2023-02-14T12:30:32;95.67;;;16.77;;
20497;SDS011;10407;53.238;10.448;2023-02-14T12:33:00;92.47;;;15.33;;
20497;SDS011;10407;53.238;10.448;2023-02-14T12:43:52;90.40;;;14.57;;
20497;SDS011;10407;53.238;10.448;2023-02-14T12:51:38;92.53;;;15.90;;
20497;SDS011;10407;53.238;10.448;2023-02-14T13:06:00;96.83;;;15.63;;
20497;SDS011;10407;53.238;10.448;2023-02-14T13:11:33;92.97;;;14.77;;
20497;SDS011;10407;53.238;10.448;2023-02-14T13:20:05;97.67;;;15.73;;
20497;SDS011;10407;53.238;10.448;2023-02-14T13:22:53;93.60;;;17.33;;
20497;SDS011;10407;53.238;10.448;2023-02-14T13:25:24;92.47;;;14.50;;
20497;SDS011;10407;53.238;10.448;2023-02-14T13:27:56;94.77;;;15.20;;
20497;SDS011;10407;53.238;10.448;2023-02-14T13:30:30;95.27;;;15.23;;
20497;SDS011;10407;53.238;10.448;2023-02-14T13:33:01;93.53;;;15.47;;
20497;SDS011;10407;53.238;10.448;2023-02-14T13:35:35;90.70;;;14.00;;
20497;SDS011;10407;53.238;10.448;2023-02-14T13:38:04;95.27;;;15.50;;
20497;SDS011;10407;53.238;10.448;2023-02-14T13:40:34;92.23;;;14.17;;
20497;SDS011;10407;53.238;10.448;2023-02-14T13:43:02;94.60;;;15.23;;
20497;SDS011;10407;53.238;10.448;2023-02-14T13:50:39;92.47;;;14.73;;
20497;SDS011;10407;53.238;10.448;2023-02-14T13:53:11;96.27;;;16.83;;
20497;SDS011;10407;53.238;10.448;2023-02-14T13:55:42;97.37;;;16.27;;
20497;SDS011;10407;53.238;10.448;2023-02-14T13:58:14;91.30;;;15.10;;
20497;SDS011;10407;53.238;10.448;2023-02-14T14:00:49;100.33;;;16.33;;
20497;SDS011;10407;53.238;10.448;2023-02-14T14:06:01;95.80;;;17.23;;
20497;SDS011;10407;53.238;10.448;2023-02-14T14:08:34;93.27;;;15.20;;
20497;SDS011;10407;53.238;10.448;2023-02-14T14:11:05;94.80;;;16.77;;
20497;SDS011;10407;53.238;10.448;2023-02-14T14:19:00;99.53;;;16.80;;
20497;SDS011;10407;53.238;10.448;2023-02-14T14:21:33;92.50;;;13.80;;
20497;SDS011;10407;53.238;10.448;2023-02-14T14:26:38;94.50;;;15.93;;
20497;SDS011;10407;53.238;10.448;2023-02-14T14:29:12;96.03;;;16.07;;
20497;SDS011;10407;53.238;10.448;2023-02-14T14:31:44;100.33;;;16.97;;
20497;SDS011;10407;53.238;10.448;2023-02-14T14:34:17;97.67;;;16.17;;
20497;SDS011;10407;53.238;10.448;2023-02-14T14:36:45;97.27;;;16.70;;
20497;SDS011;10407;53.238;10.448;2023-02-14T14:39:23;94.00;;;15.70;;
20497;SDS011;10407;53.238;10.448;2023-02-14T14:41:52;94.67;;;16.00;;
20497;SDS011;10407;53.238;10.448;2023-02-14T14:44:21;95.80;;;15.27;;
20497;SDS011;10407;53.238;10.448;2023-02-14T14:46:50;96.20;;;15.87;;
20497;SDS011;10407;53.238;10.448;2023-02-14T14:49:18;94.93;;;15.87;;
20497;SDS011;10407;53.238;10.448;2023-02-14T14:51:47;97.43;;;17.33;;
20497;SDS011;10407;53.238;10.448;2023-02-14T14:54:15;101.70;;;16.77;;
20497;SDS011;10407;53.238;10.448;2023-02-14T14:56:53;100.20;;;16.90;;
20497;SDS011;10407;53.238;10.448;2023-02-14T14:59:33;93.17;;;16.77;;
20497;SDS011;10407;53.238;10.448;2023-02-14T15:02:18;97.93;;;16.40;;
20497;SDS011;10407;53.238;10.448;2023-02-14T15:04:34;96.20;;;16.37;;
20497;SDS011;10407;53.238;10.448;2023-02-14T15:09:55;98.47;;;15.27;;
20497;SDS011;10407;53.238;10.448;2023-02-14T15:12:23;92.60;;;16.63;;
20497;SDS011;10407;53.238;10.448;2023-02-14T15:15:10;96.07;;;15.80;;
20497;SDS011;10407;53.238;10.448;2023-02-14T15:17:42;100.20;;;18.60;;
20497;SDS011;10407;53.238;10.448;2023-02-14T15:20:21;95.43;;;16.57;;
20497;SDS011;10407;53.238;10.448;2023-02-14T15:22:50;97.40;;;17.20;;
20497;SDS011;10407;53.238;10.448;2023-02-14T15:25:21;94.83;;;16.33;;
20497;SDS011;10407;53.238;10.448;2023-02-14T15:27:53;97.93;;;18.10;;
20497;SDS011;10407;53.238;10.448;2023-02-14T15:30:26;96.47;;;16.20;;
20497;SDS011;10407;53.238;10.448;2023-02-14T15:32:56;97.70;;;16.63;;
20497;SDS011;10407;53.238;10.448;2023-02-14T15:35:26;95.43;;;17.23;;
20497;SDS011;10407;53.238;10.448;2023-02-14T15:37:56;97.83;;;16.37;;
20497;SDS011;10407;53.238;10.448;2023-02-14T15:40:28;99.90;;;18.87;;
20497;SDS011;10407;53.238;10.448;2023-02-14T15:42:59;101.87;;;16.93;;
20497;SDS011;10407;53.238;10.448;2023-02-14T15:45:39;93.47;;;15.93;;
20497;SDS011;10407;53.238;10.448;2023-02-14T15:48:11;95.57;;;17.27;;
20497;SDS011;10407;53.238;10.448;2023-02-14T15:50:47;99.50;;;16.67;;
20497;SDS011;10407;53.238;10.448;2023-02-14T15:55:48;93.57;;;17.20;;
20497;SDS011;10407;53.238;10.448;2023-02-14T15:58:17;93.57;;;14.90;;
20497;SDS011;10407;53.238;10.448;2023-02-14T16:00:51;92.27;;;16.60;;
20497;SDS011;10407;53.238;10.448;2023-02-14T16:03:21;102.53;;;19.63;;
20497;SDS011;10407;53.238;10.448;2023-02-14T16:05:50;100.83;;;18.50;;
20497;SDS011;10407;53.238;10.448;2023-02-14T16:08:36;99.33;;;17.20;;
20497;SDS011;10407;53.238;10.448;2023-02-14T16:13:56;94.23;;;14.70;;
20497;SDS011;10407;53.238;10.448;2023-02-14T16:16:24;102.40;;;16.27;;
20497;SDS011;10407;53.238;10.448;2023-02-14T16:18:52;92.67;;;14.60;;
20497;SDS011;10407;53.238;10.448;2023-02-14T16:21:22;91.97;;;16.20;;
20497;SDS011;10407;53.238;10.448;2023-02-14T16:26:39;98.27;;;17.50;;
20497;SDS011;10407;53.238;10.448;2023-02-14T16:29:09;98.10;;;16.90;;
20497;SDS011;10407;53.238;10.448;2023-02-14T16:31:40;95.57;;;16.20;;
20497;SDS011;10407;53.238;10.448;2023-02-14T16:34:12;99.27;;;16.60;;
20497;SDS011;10407;53.238;10.448;2023-02-14T16:36:40;96.80;;;16.10;;
20497;SDS011;10407;53.238;10.448;2023-02-14T16:39:12;94.67;;;15.87;;
20497;SDS011;10407;53.238;10.448;2023-02-14T16:41:42;96.43;;;15.87;;
20497;SDS011;10407;53.238;10.448;2023-02-14T16:44:12;99.77;;;16.30;;
20497;SDS011;10407;53.238;10.448;2023-02-14T16:46:44;93.17;;;16.10;;
20497;SDS011;10407;53.238;10.448;2023-02-14T16:49:12;94.37;;;15.93;;
20497;SDS011;10407;53.238;10.448;2023-02-14T16:51:41;101.10;;;18.27;;